Time,TemperatureF,DewpointF,PressureIn,WindDirection,WindDirectionDegrees,WindSpeedMPH,WindSpeedGustMPH,Humidity,HourlyPrecipIn,Conditions,Clouds,dailyrainin,SoftwareType,DateUTC
2013-07-29 00:02:00,68.0,40.0,-100.00,WSW,253,4.0,13.0,37,-99.99,,,-99.99,,2013-07-29 07:02:00,
2013-07-29 00:22:00,66.0,41.0,-100.00,North,360,3.0,10.0,40,-99.99,,,-99.99,,2013-07-29 07:22:00,
2013-07-29 00:33:00,66.0,41.0,-100.00,North,360,3.0,10.0,40,-99.99,,,-99.99,,2013-07-29 07:33:00,
2013-07-29 00:43:00,68.0,36.0,-100.00,West,272,5.0,13.0,31,-99.99,,,-99.99,,2013-07-29 07:43:00,
2013-07-29 00:53:00,68.0,36.0,-100.00,West,272,5.0,13.0,31,-99.99,,,-99.99,,2013-07-29 07:53:00,
2013-07-29 01:22:00,66.0,37.0,-100.00,SW,224,2.0,7.0,35,-99.99,,,-99.99,,2013-07-29 08:22:00,
2013-07-29 01:33:00,66.0,37.0,-100.00,SW,224,2.0,7.0,35,-99.99,,,-99.99,,2013-07-29 08:33:00,
2013-07-29 01:42:00,66.0,37.0,-100.00,SW,224,2.0,7.0,35,-99.99,,,-99.99,,2013-07-29 08:42:00,
2013-07-29 05:33:00,61.0,30.0,-100.00,SW,230,6.0,11.0,31,-99.99,,,-99.99,,2013-07-29 12:33:00,
2013-07-29 05:44:00,61.0,30.0,-100.00,SW,230,6.0,11.0,31,-99.99,,,-99.99,,2013-07-29 12:44:00,
2013-07-29 06:02:00,62.0,30.0,-100.00,WSW,241,5.0,9.0,30,-99.99,,,-99.99,,2013-07-29 13:02:00,
2013-07-29 06:14:00,62.0,30.0,-100.00,WSW,241,5.0,9.0,30,-99.99,,,-99.99,,2013-07-29 13:14:00,
2013-07-29 06:35:00,62.0,30.0,-100.00,ESE,120,0.0,5.0,30,-99.99,,,-99.99,,2013-07-29 13:35:00,
2013-07-29 09:12:00,71.0,37.0,-100.00,SE,134,3.0,6.0,29,-99.99,,,-99.99,,2013-07-29 16:12:00,
2013-07-29 09:44:00,72.0,35.0,-100.00,ESE,113,4.0,9.0,27,-99.99,,,-99.99,,2013-07-29 16:44:00,
2013-07-29 11:57:00,75.0,28.0,-100.00,WSW,246,16.0,30.0,17,-99.99,,,-99.99,,2013-07-29 18:57:00,
2013-07-29 12:13:00,75.0,28.0,-100.00,WSW,246,16.0,30.0,17,-99.99,,,-99.99,,2013-07-29 19:13:00,
2013-07-29 12:48:00,77.0,29.0,-100.00,WSW,244,13.0,22.0,17,-99.99,,,-99.99,,2013-07-29 19:48:00,
2013-07-29 13:04:00,76.0,29.0,-100.00,SW,229,14.0,26.0,18,-99.99,,,-99.99,,2013-07-29 20:04:00,
2013-07-29 13:33:00,77.0,28.0,-100.00,WSW,241,15.0,29.0,16,-99.99,,,-99.99,,2013-07-29 20:33:00,
2013-07-29 13:45:00,77.0,27.0,-100.00,WSW,244,16.0,28.0,16,-99.99,,,-99.99,,2013-07-29 20:45:00,
2013-07-29 14:04:00,77.0,27.0,-100.00,WSW,239,16.0,28.0,16,-99.99,,,-99.99,,2013-07-29 21:04:00,
2013-07-29 14:22:00,77.0,27.0,-100.00,WSW,239,16.0,28.0,16,-99.99,,,-99.99,,2013-07-29 21:22:00,
2013-07-29 14:59:00,77.0,30.0,-100.00,WSW,240,16.0,30.0,18,-99.99,,,-99.99,,2013-07-29 21:59:00,
2013-07-29 15:23:00,78.0,32.0,-100.00,SW,232,12.0,24.0,19,-99.99,,,-99.99,,2013-07-29 22:23:00,
2013-07-29 15:43:00,77.0,33.0,-100.00,SW,227,13.0,26.0,20,-99.99,,,-99.99,,2013-07-29 22:43:00,
2013-07-29 16:12:00,77.0,34.0,-100.00,SW,229,13.0,24.0,21,-99.99,,,-99.99,,2013-07-29 23:12:00,
2013-07-29 16:44:00,76.0,31.0,-100.00,SW,223,14.0,24.0,19,-99.99,,,-99.99,,2013-07-29 23:44:00,
2013-07-29 17:04:00,76.0,31.0,-100.00,SSW,213,18.0,35.0,19,-99.99,,,-99.99,,2013-07-30 00:04:00,
2013-07-29 17:23:00,76.0,32.0,-100.00,SW,219,12.0,24.0,19,-99.99,,,-99.99,,2013-07-30 00:23:00,
2013-07-29 17:53:00,77.0,32.0,-100.00,SW,232,12.0,25.0,20,-99.99,,,-99.99,,2013-07-30 00:53:00,
2013-07-29 18:05:00,77.0,32.0,-100.00,SW,232,12.0,25.0,20,-99.99,,,-99.99,,2013-07-30 01:05:00,
2013-07-29 18:23:00,75.0,33.0,-100.00,SW,226,12.0,24.0,21,-99.99,,,-99.99,,2013-07-30 01:23:00,
2013-07-29 18:58:00,74.0,33.0,-100.00,SW,216,11.0,25.0,22,-99.99,,,-99.99,,2013-07-30 01:58:00,
2013-07-29 19:04:00,74.0,35.0,-100.00,WSW,239,9.0,21.0,24,-99.99,,,-99.99,,2013-07-30 02:04:00,
2013-07-29 19:13:00,74.0,35.0,-100.00,WSW,239,9.0,21.0,24,-99.99,,,-99.99,,2013-07-30 02:13:00,
2013-07-29 19:34:00,71.0,37.0,-100.00,SW,234,10.0,22.0,28,-99.99,,,-99.99,,2013-07-30 02:34:00,
2013-07-29 19:41:00,69.0,36.0,-100.00,SW,224,7.0,18.0,29,-99.99,,,-99.99,,2013-07-30 02:41:00,
2013-07-29 19:44:00,71.0,37.0,-100.00,SW,234,10.0,22.0,28,-99.99,,,-99.99,,2013-07-30 02:44:00,
2013-07-29 19:53:00,70.0,37.0,-100.00,SSW,209,7.0,14.0,30,-99.99,,,-99.99,,2013-07-30 02:53:00,
2013-07-29 20:06:00,70.0,37.0,-100.00,SSW,209,7.0,14.0,30,-99.99,,,-99.99,,2013-07-30 03:06:00,
2013-07-29 20:14:00,69.0,36.0,-100.00,SW,224,7.0,18.0,29,-99.99,,,-99.99,,2013-07-30 03:14:00,
2013-07-29 20:23:00,69.0,36.0,-100.00,SW,224,7.0,18.0,29,-99.99,,,-99.99,,2013-07-30 03:23:00,
2013-07-29 20:33:00,69.0,36.0,-100.00,SW,224,7.0,18.0,29,-99.99,,,-99.99,,2013-07-30 03:33:00,
2013-07-29 21:03:00,68.0,36.0,-100.00,SW,216,8.0,15.0,30,-99.99,,,-99.99,,2013-07-30 04:03:00,
2013-07-29 21:22:00,68.0,36.0,-100.00,SW,219,7.0,14.0,31,-99.99,,,-99.99,,2013-07-30 04:22:00,
2013-07-29 21:33:00,67.0,36.0,-100.00,SSW,206,5.0,12.0,32,-99.99,,,-99.99,,2013-07-30 04:33:00,
2013-07-29 21:43:00,67.0,35.0,-100.00,WSW,237,6.0,19.0,31,-99.99,,,-99.99,,2013-07-30 04:43:00,
2013-07-29 21:53:00,67.0,35.0,-100.00,WSW,237,6.0,19.0,31,-99.99,,,-99.99,,2013-07-30 04:53:00,
2013-07-29 22:02:00,66.0,36.0,-100.00,SSW,209,5.0,13.0,33,-99.99,,,-99.99,,2013-07-30 05:02:00,
2013-07-29 22:22:00,65.0,35.0,-100.00,SSW,202,4.0,9.0,32,-99.99,,,-99.99,,2013-07-30 05:22:00,
2013-07-29 22:32:00,65.0,35.0,-100.00,SSW,202,4.0,9.0,32,-99.99,,,-99.99,,2013-07-30 05:32:00,
2013-07-29 22:45:00,65.0,35.0,-100.00,SSW,205,3.0,8.0,33,-99.99,,,-99.99,,2013-07-30 05:45:00,
2013-07-29 22:52:00,65.0,35.0,-100.00,SSW,205,3.0,8.0,33,-99.99,,,-99.99,,2013-07-30 05:52:00,
2013-07-29 23:02:00,65.0,35.0,-100.00,SSW,208,6.0,17.0,33,-99.99,,,-99.99,,2013-07-30 06:02:00,
2013-07-29 23:12:00,66.0,33.0,-100.00,SSW,208,6.0,17.0,30,-99.99,,,-99.99,,2013-07-30 06:12:00,
2013-07-29 23:22:00,66.0,33.0,-100.00,SSW,208,6.0,17.0,30,-99.99,,,-99.99,,2013-07-30 06:22:00,
2013-07-29 23:32:00,66.0,33.0,-100.00,SSW,208,6.0,17.0,30,-99.99,,,-99.99,,2013-07-30 06:32:00,